sensor_id;sensor_type;location;lat;lon;timestamp;pressure;altitude;pressure_sealevel;temperature;humidity
28683;BME280;15862;43.062;25.626;2022-12-20T00:01:49;102487.44;;;-4.97;100.00
28683;BME280;15862;43.062;25.626;2022-12-20T00:04:15;102478.28;;;-4.93;100.00
28683;BME280;15862;43.062;25.626;2022-12-20T00:06:40;102482.56;;;-4.91;100.00
28683;BME280;15862;43.062;25.626;2022-12-20T00:09:07;102474.88;;;-4.95;100.00
28683;BME280;15862;43.062;25.626;2022-12-20T00:11:33;102484.91;;;-4.97;100.00
28683;BME280;15862;43.062;25.626;2022-12-20T00:13:58;102484.75;;;-5.01;100.00
28683;BME280;15862;43.062;25.626;2022-12-20T00:16:26;102471.09;;;-5.09;100.00
28683;BME280;15862;43.062;25.626;2022-12-20T00:19:00;102478.59;;;-5.11;100.00
28683;BME280;15862;43.062;25.626;2022-12-20T00:21:26;102484.47;;;-5.10;100.00
28683;BME280;15862;43.062;25.626;2022-12-20T00:23:53;102476.59;;;-5.21;100.00
28683;BME280;15862;43.062;25.626;2022-12-20T00:26:21;102481.81;;;-5.15;100.00
28683;BME280;15862;43.062;25.626;2022-12-20T00:28:47;102479.56;;;-5.07;100.00
28683;BME280;15862;43.062;25.626;2022-12-20T00:31:14;102479.56;;;-5.07;100.00
28683;BME280;15862;43.062;25.626;2022-12-20T00:33:41;102476.13;;;-5.09;100.00
28683;BME280;15862;43.062;25.626;2022-12-20T00:36:08;102458.97;;;-5.21;100.00
28683;BME280;15862;43.062;25.626;2022-12-20T00:38:34;102478.81;;;-5.03;100.00
28683;BME280;15862;43.062;25.626;2022-12-20T00:41:05;102450.66;;;-5.18;100.00
28683;BME280;15862;43.062;25.626;2022-12-20T00:43:31;102471.97;;;-5.09;100.00
28683;BME280;15862;43.062;25.626;2022-12-20T00:45:57;102459.91;;;-5.17;100.00
28683;BME280;15862;43.062;25.626;2022-12-20T00:48:23;102444.53;;;-5.26;100.00
28683;BME280;15862;43.062;25.626;2022-12-20T00:50:48;102450.50;;;-5.23;100.00
28683;BME280;15862;43.062;25.626;2022-12-20T00:53:14;102461.41;;;-5.24;100.00
28683;BME280;15862;43.062;25.626;2022-12-20T00:55:44;102442.59;;;-5.34;100.00
28683;BME280;15862;43.062;25.626;2022-12-20T00:58:10;102469.97;;;-5.19;100.00
28683;BME280;15862;43.062;25.626;2022-12-20T01:00:36;102464.81;;;-5.22;100.00
28683;BME280;15862;43.062;25.626;2022-12-20T01:03:03;102466.47;;;-5.24;100.00
28683;BME280;15862;43.062;25.626;2022-12-20T01:05:28;102457.84;;;-5.30;100.00
28683;BME280;15862;43.062;25.626;2022-12-20T01:07:54;102452.84;;;-5.29;100.00
28683;BME280;15862;43.062;25.626;2022-12-20T01:10:19;102447.63;;;-5.34;100.00
28683;BME280;15862;43.062;25.626;2022-12-20T01:12:45;102444.59;;;-5.25;100.00
28683;BME280;15862;43.062;25.626;2022-12-20T01:15:11;102446.31;;;-5.24;100.00
28683;BME280;15862;43.062;25.626;2022-12-20T01:17:36;102441.22;;;-5.25;100.00
28683;BME280;15862;43.062;25.626;2022-12-20T01:20:03;102430.03;;;-5.33;100.00
28683;BME280;15862;43.062;25.626;2022-12-20T01:22:29;102430.00;;;-5.34;100.00
28683;BME280;15862;43.062;25.626;2022-12-20T01:24:54;102433.28;;;-5.37;100.00
28683;BME280;15862;43.062;25.626;2022-12-20T01:27:20;102426.53;;;-5.38;100.00
28683;BME280;15862;43.062;25.626;2022-12-20T01:29:45;102419.84;;;-5.37;100.00
28683;BME280;15862;43.062;25.626;2022-12-20T01:32:11;102418.78;;;-5.45;100.00
28683;BME280;15862;43.062;25.626;2022-12-20T01:34:36;102423.56;;;-5.53;100.00
28683;BME280;15862;43.062;25.626;2022-12-20T01:37:02;102416.88;;;-5.52;100.00
28683;BME280;15862;43.062;25.626;2022-12-20T01:39:27;102416.91;;;-5.51;100.00
28683;BME280;15862;43.062;25.626;2022-12-20T01:41:53;102421.97;;;-5.49;100.00
28683;BME280;15862;43.062;25.626;2022-12-20T01:46:45;102404.16;;;-5.57;100.00
28683;BME280;15862;43.062;25.626;2022-12-20T01:49:21;102408.88;;;-5.66;100.00
28683;BME280;15862;43.062;25.626;2022-12-20T01:51:52;102407.94;;;-5.69;100.00
28683;BME280;15862;43.062;25.626;2022-12-20T01:54:25;102398.06;;;-5.63;100.00
28683;BME280;15862;43.062;25.626;2022-12-20T01:56:59;102409.88;;;-5.61;100.00
28683;BME280;15862;43.062;25.626;2022-12-20T01:59:27;102408.88;;;-5.66;100.00
28683;BME280;15862;43.062;25.626;2022-12-20T02:01:57;102404.53;;;-5.70;100.00
28683;BME280;15862;43.062;25.626;2022-12-20T02:04:22;102397.72;;;-5.74;100.00
28683;BME280;15862;43.062;25.626;2022-12-20T02:06:48;102405.31;;;-5.72;100.00
28683;BME280;15862;43.062;25.626;2022-12-20T02:09:14;102401.31;;;-5.67;100.00
28683;BME280;15862;43.062;25.626;2022-12-20T02:31:49;102372.00;;;-5.92;100.00
28683;BME280;15862;43.062;25.626;2022-12-20T02:34:16;102356.38;;;-6.08;100.00
28683;BME280;15862;43.062;25.626;2022-12-20T02:36:42;102381.94;;;-5.96;100.00
28683;BME280;15862;43.062;25.626;2022-12-20T02:39:11;102369.22;;;-6.01;100.00
28683;BME280;15862;43.062;25.626;2022-12-20T02:41:43;102378.47;;;-6.00;100.00
28683;BME280;15862;43.062;25.626;2022-12-20T02:44:13;102378.59;;;-5.95;100.00
28683;BME280;15862;43.062;25.626;2022-12-20T02:47:01;102377.66;;;-5.99;100.00
28683;BME280;15862;43.062;25.626;2022-12-20T02:49:31;102369.94;;;-6.03;100.00
28683;BME280;15862;43.062;25.626;2022-12-20T02:51:59;102365.41;;;-5.88;100.00
28683;BME280;15862;43.062;25.626;2022-12-20T02:54:26;102360.75;;;-5.78;100.00
28683;BME280;15862;43.062;25.626;2022-12-20T02:57:19;102359.53;;;-5.89;100.00
28683;BME280;15862;43.062;25.626;2022-12-20T03:02:23;102369.06;;;-6.05;100.00
28683;BME280;15862;43.062;25.626;2022-12-20T03:04:49;102373.31;;;-6.04;100.00
28683;BME280;15862;43.062;25.626;2022-12-20T03:07:15;102358.81;;;-6.11;100.00
28683;BME280;15862;43.062;25.626;2022-12-20T03:09:43;102375.75;;;-6.05;100.00
28683;BME280;15862;43.062;25.626;2022-12-20T03:12:10;102373.00;;;-6.13;100.00
28683;BME280;15862;43.062;25.626;2022-12-20T03:14:39;102369.75;;;-6.09;100.00
28683;BME280;15862;43.062;25.626;2022-12-20T03:17:05;102351.97;;;-6.15;100.00
28683;BME280;15862;43.062;25.626;2022-12-20T03:19:30;102352.00;;;-6.13;100.00
28683;BME280;15862;43.062;25.626;2022-12-20T03:21:57;102357.03;;;-6.13;100.00
28683;BME280;15862;43.062;25.626;2022-12-20T03:24:22;102337.50;;;-6.22;100.00
28683;BME280;15862;43.062;25.626;2022-12-20T03:26:48;102347.66;;;-6.19;100.00
28683;BME280;15862;43.062;25.626;2022-12-20T03:29:13;102339.25;;;-6.19;100.00
28683;BME280;15862;43.062;25.626;2022-12-20T03:31:39;102355.88;;;-6.23;100.00
28683;BME280;15862;43.062;25.626;2022-12-20T03:34:04;102361.03;;;-6.20;100.00
28683;BME280;15862;43.062;25.626;2022-12-20T03:36:30;102352.38;;;-6.28;100.00
28683;BME280;15862;43.062;25.626;2022-12-20T03:38:55;102348.19;;;-6.27;100.00
28683;BME280;15862;43.062;25.626;2022-12-20T03:41:22;102346.41;;;-6.31;100.00
28683;BME280;15862;43.062;25.626;2022-12-20T03:43:48;102352.38;;;-6.28;100.00
28683;BME280;15862;43.062;25.626;2022-12-20T03:46:14;102345.53;;;-6.32;100.00
28683;BME280;15862;43.062;25.626;2022-12-20T03:48:39;102341.22;;;-6.36;100.00
28683;BME280;15862;43.062;25.626;2022-12-20T03:51:05;102346.13;;;-6.39;100.00
28683;BME280;15862;43.062;25.626;2022-12-20T03:53:31;102345.34;;;-6.38;100.00
28683;BME280;15862;43.062;25.626;2022-12-20T03:55:56;102346.25;;;-6.36;100.00
28683;BME280;15862;43.062;25.626;2022-12-20T03:58:22;102340.41;;;-6.35;100.00
28683;BME280;15862;43.062;25.626;2022-12-20T04:00:48;102338.81;;;-6.33;100.00
28683;BME280;15862;43.062;25.626;2022-12-20T04:03:13;102337.00;;;-6.37;100.00
28683;BME280;15862;43.062;25.626;2022-12-20T04:05:38;102327.81;;;-6.36;100.00
28683;BME280;15862;43.062;25.626;2022-12-20T04:08:04;102331.88;;;-6.40;100.00
28683;BME280;15862;43.062;25.626;2022-12-20T04:10:29;102329.31;;;-6.41;100.00
28683;BME280;15862;43.062;25.626;2022-12-20T04:12:55;102328.50;;;-6.40;100.00
28683;BME280;15862;43.062;25.626;2022-12-20T04:15:20;102330.25;;;-6.38;100.00
28683;BME280;15862;43.062;25.626;2022-12-20T04:17:46;102311.38;;;-6.52;100.00
28683;BME280;15862;43.062;25.626;2022-12-20T04:20:14;102311.66;;;-6.43;100.00
28683;BME280;15862;43.062;25.626;2022-12-20T04:22:50;102323.31;;;-6.45;100.00
28683;BME280;15862;43.062;25.626;2022-12-20T04:25:17;102327.31;;;-6.51;100.00
28683;BME280;15862;43.062;25.626;2022-12-20T04:27:43;102324.84;;;-6.50;100.00
28683;BME280;15862;43.062;25.626;2022-12-20T04:30:10;102312.22;;;-6.51;100.00
28683;BME280;15862;43.062;25.626;2022-12-20T04:32:35;102290.94;;;-6.61;100.00
28683;BME280;15862;43.062;25.626;2022-12-20T04:35:01;102308.00;;;-6.52;100.00
28683;BME280;15862;43.062;25.626;2022-12-20T04:37:28;102296.22;;;-6.55;100.00
28683;BME280;15862;43.062;25.626;2022-12-20T04:39:54;102307.66;;;-6.63;100.00
28683;BME280;15862;43.062;25.626;2022-12-20T04:42:20;102310.31;;;-6.58;100.00
28683;BME280;15862;43.062;25.626;2022-12-20T04:44:46;102299.41;;;-6.59;100.00
28683;BME280;15862;43.062;25.626;2022-12-20T04:47:11;102304.44;;;-6.59;100.00
28683;BME280;15862;43.062;25.626;2022-12-20T04:49:36;102300.31;;;-6.57;100.00
28683;BME280;15862;43.062;25.626;2022-12-20T04:52:02;102300.16;;;-6.61;100.00
28683;BME280;15862;43.062;25.626;2022-12-20T04:54:46;102293.63;;;-6.56;100.00
28683;BME280;15862;43.062;25.626;2022-12-20T04:57:12;102284.34;;;-6.59;100.00
28683;BME280;15862;43.062;25.626;2022-12-20T04:59:37;102291.88;;;-6.59;100.00
28683;BME280;15862;43.062;25.626;2022-12-20T05:02:03;102290.94;;;-6.61;100.00
28683;BME280;15862;43.062;25.626;2022-12-20T05:04:28;102295.09;;;-6.63;100.00
28683;BME280;15862;43.062;25.626;2022-12-20T05:06:53;102286.53;;;-6.68;100.00
28683;BME280;15862;43.062;25.626;2022-12-20T05:09:19;102297.59;;;-6.63;100.00
28683;BME280;15862;43.062;25.626;2022-12-20T05:11:44;102297.59;;;-6.63;100.00
28683;BME280;15862;43.062;25.626;2022-12-20T05:14:10;102305.94;;;-6.64;100.00
28683;BME280;15862;43.062;25.626;2022-12-20T05:16:35;102298.44;;;-6.62;100.00
28683;BME280;15862;43.062;25.626;2022-12-20T05:19:02;102297.59;;;-6.63;100.00
28683;BME280;15862;43.062;25.626;2022-12-20T05:21:29;102285.88;;;-6.62;100.00
28683;BME280;15862;43.062;25.626;2022-12-20T05:24:13;102287.56;;;-6.63;100.00
28683;BME280;15862;43.062;25.626;2022-12-20T05:26:57;102289.16;;;-6.65;100.00
28683;BME280;15862;43.062;25.626;2022-12-20T05:29:22;102293.44;;;-6.62;100.00
28683;BME280;15862;43.062;25.626;2022-12-20T05:31:48;102278.78;;;-6.74;100.00
28683;BME280;15862;43.062;25.626;2022-12-20T05:34:13;102303.47;;;-6.62;100.00
28683;BME280;15862;43.062;25.626;2022-12-20T05:36:39;102290.88;;;-6.64;100.00
28683;BME280;15862;43.062;25.626;2022-12-20T05:39:04;102292.78;;;-6.57;100.00
28683;BME280;15862;43.062;25.626;2022-12-20T05:41:30;102301.22;;;-6.55;100.00
28683;BME280;15862;43.062;25.626;2022-12-20T05:43:56;102300.63;;;-6.48;100.00
28683;BME280;15862;43.062;25.626;2022-12-20T05:46:22;102313.22;;;-6.46;100.00
28683;BME280;15862;43.062;25.626;2022-12-20T05:48:47;102315.75;;;-6.46;100.00
28683;BME280;15862;43.062;25.626;2022-12-20T05:51:13;102316.75;;;-6.41;100.00
28683;BME280;15862;43.062;25.626;2022-12-20T05:53:38;102313.59;;;-6.36;100.00
28683;BME280;15862;43.062;25.626;2022-12-20T05:56:04;102314.38;;;-6.37;100.00
28683;BME280;15862;43.062;25.626;2022-12-20T05:58:29;102308.09;;;-6.24;100.00
28683;BME280;15862;43.062;25.626;2022-12-20T06:00:55;102310.75;;;-6.20;100.00
28683;BME280;15862;43.062;25.626;2022-12-20T06:03:20;102299.28;;;-6.12;100.00
28683;BME280;15862;43.062;25.626;2022-12-20T06:05:46;102307.38;;;-5.94;100.00
28683;BME280;15862;43.062;25.626;2022-12-20T06:08:12;102305.13;;;-5.87;100.00
28683;BME280;15862;43.062;25.626;2022-12-20T06:10:39;102306.38;;;-5.73;100.00
28683;BME280;15862;43.062;25.626;2022-12-20T06:13:06;102308.38;;;-5.61;100.00
28683;BME280;15862;43.062;25.626;2022-12-20T06:15:32;102302.78;;;-5.51;100.00
28683;BME280;15862;43.062;25.626;2022-12-20T06:17:58;102306.34;;;-5.45;100.00
28683;BME280;15862;43.062;25.626;2022-12-20T06:20:23;102295.31;;;-5.50;100.00
28683;BME280;15862;43.062;25.626;2022-12-20T06:22:49;102306.25;;;-5.20;100.00
28683;BME280;15862;43.062;25.626;2022-12-20T06:25:15;102304.03;;;-5.10;100.00
28683;BME280;15862;43.062;25.626;2022-12-20T06:27:41;102292.28;;;-5.09;100.00
28683;BME280;15862;43.062;25.626;2022-12-20T06:30:08;102300.75;;;-4.76;100.00
28683;BME280;15862;43.062;25.626;2022-12-20T06:32:34;102306.63;;;-4.11;100.00
28683;BME280;15862;43.062;25.626;2022-12-20T06:34:59;102299.94;;;-3.36;100.00
28683;BME280;15862;43.062;25.626;2022-12-20T06:37:25;102308.41;;;-2.45;100.00
28683;BME280;15862;43.062;25.626;2022-12-20T06:39:50;102291.69;;;-1.87;100.00
28683;BME280;15862;43.062;25.626;2022-12-20T06:42:16;102299.56;;;-1.01;100.00
28683;BME280;15862;43.062;25.626;2022-12-20T06:44:41;102291.19;;;-0.10;100.00
28683;BME280;15862;43.062;25.626;2022-12-20T06:47:06;102285.69;;;0.57;100.00
28683;BME280;15862;43.062;25.626;2022-12-20T06:49:32;102271.53;;;1.39;100.00
28683;BME280;15862;43.062;25.626;2022-12-20T06:51:57;102256.28;;;1.87;100.00
28683;BME280;15862;43.062;25.626;2022-12-20T06:54:23;102274.06;;;2.23;95.91
28683;BME280;15862;43.062;25.626;2022-12-20T06:56:48;102275.78;;;2.12;91.75
28683;BME280;15862;43.062;25.626;2022-12-20T06:59:14;102269.88;;;1.89;86.69
28683;BME280;15862;43.062;25.626;2022-12-20T07:01:39;102276.66;;;1.84;87.57
28683;BME280;15862;43.062;25.626;2022-12-20T07:04:05;102278.22;;;2.65;78.23
28683;BME280;15862;43.062;25.626;2022-12-20T07:06:30;102269.31;;;3.41;73.30
28683;BME280;15862;43.062;25.626;2022-12-20T07:08:56;102268.56;;;4.26;81.50
28683;BME280;15862;43.062;25.626;2022-12-20T07:11:22;102255.19;;;5.39;72.37
28683;BME280;15862;43.062;25.626;2022-12-20T07:13:47;102255.91;;;6.03;65.23
28683;BME280;15862;43.062;25.626;2022-12-20T07:16:14;102256.63;;;6.95;58.87
28683;BME280;15862;43.062;25.626;2022-12-20T07:18:39;102245.72;;;6.84;56.35
28683;BME280;15862;43.062;25.626;2022-12-20T07:21:05;102259.03;;;7.41;54.49
28683;BME280;15862;43.062;25.626;2022-12-20T07:23:30;102255.88;;;8.33;51.31
28683;BME280;15862;43.062;25.626;2022-12-20T07:25:58;102240.41;;;9.20;46.54
28683;BME280;15862;43.062;25.626;2022-12-20T07:28:24;102245.22;;;9.04;43.98
28683;BME280;15862;43.062;25.626;2022-12-20T07:30:51;102242.88;;;9.23;41.32
28683;BME280;15862;43.062;25.626;2022-12-20T07:33:17;102250.00;;;8.58;43.11
28683;BME280;15862;43.062;25.626;2022-12-20T07:35:42;102243.34;;;8.21;42.36
28683;BME280;15862;43.062;25.626;2022-12-20T07:38:10;102231.72;;;8.36;42.50
28683;BME280;15862;43.062;25.626;2022-12-20T07:40:39;102242.66;;;8.44;42.68
28683;BME280;15862;43.062;25.626;2022-12-20T07:43:05;102246.25;;;8.69;42.47
28683;BME280;15862;43.062;25.626;2022-12-20T07:45:30;102240.66;;;9.66;42.44
28683;BME280;15862;43.062;25.626;2022-12-20T07:47:55;102234.56;;;10.43;41.70
28683;BME280;15862;43.062;25.626;2022-12-20T07:50:22;102236.81;;;10.52;39.70
28683;BME280;15862;43.062;25.626;2022-12-20T07:52:49;102232.72;;;11.14;38.71
28683;BME280;15862;43.062;25.626;2022-12-20T07:55:15;102227.84;;;11.49;38.88
28683;BME280;15862;43.062;25.626;2022-12-20T07:57:48;102225.50;;;12.64;36.78
28683;BME280;15862;43.062;25.626;2022-12-20T08:00:16;102222.50;;;13.09;36.28
28683;BME280;15862;43.062;25.626;2022-12-20T08:02:59;102216.44;;;13.27;34.63
28683;BME280;15862;43.062;25.626;2022-12-20T08:05:27;102203.81;;;14.06;34.15
28683;BME280;15862;43.062;25.626;2022-12-20T08:07:55;102207.56;;;14.50;33.58
28683;BME280;15862;43.062;25.626;2022-12-20T08:10:21;102204.88;;;14.51;32.08
28683;BME280;15862;43.062;25.626;2022-12-20T08:12:47;102170.94;;;14.22;32.83
28683;BME280;15862;43.062;25.626;2022-12-20T08:15:14;102202.59;;;13.96;33.12
28683;BME280;15862;43.062;25.626;2022-12-20T08:17:39;102196.53;;;12.73;34.41
28683;BME280;15862;43.062;25.626;2022-12-20T08:20:05;102196.75;;;10.41;37.83
28683;BME280;15862;43.062;25.626;2022-12-20T08:22:33;102185.47;;;8.62;41.03
28683;BME280;15862;43.062;25.626;2022-12-20T08:24:59;102198.88;;;7.81;43.58
28683;BME280;15862;43.062;25.626;2022-12-20T08:27:24;102201.22;;;6.84;45.30
28683;BME280;15862;43.062;25.626;2022-12-20T08:29:50;102197.31;;;5.79;48.20
28683;BME280;15862;43.062;25.626;2022-12-20T08:32:15;102184.00;;;5.04;50.38
28683;BME280;15862;43.062;25.626;2022-12-20T08:34:41;102193.72;;;4.13;54.73
28683;BME280;15862;43.062;25.626;2022-12-20T08:37:06;102189.41;;;3.27;59.12
28683;BME280;15862;43.062;25.626;2022-12-20T08:39:32;102182.91;;;2.78;64.63
28683;BME280;15862;43.062;25.626;2022-12-20T08:41:57;102180.41;;;2.66;67.92
28683;BME280;15862;43.062;25.626;2022-12-20T08:44:23;102176.28;;;2.44;70.02
28683;BME280;15862;43.062;25.626;2022-12-20T08:46:48;102173.00;;;2.10;72.44
28683;BME280;15862;43.062;25.626;2022-12-20T08:49:14;102163.69;;;1.95;75.07
28683;BME280;15862;43.062;25.626;2022-12-20T08:51:39;102158.63;;;1.83;76.95
28683;BME280;15862;43.062;25.626;2022-12-20T08:54:04;102135.75;;;1.73;78.03
28683;BME280;15862;43.062;25.626;2022-12-20T08:56:30;102134.59;;;2.48;81.26
28683;BME280;15862;43.062;25.626;2022-12-20T08:58:55;102142.41;;;4.88;66.92
28683;BME280;15862;43.062;25.626;2022-12-20T09:01:21;102136.28;;;6.78;55.15
28683;BME280;15862;43.062;25.626;2022-12-20T09:03:47;102142.56;;;8.01;49.11
28683;BME280;15862;43.062;25.626;2022-12-20T09:06:18;102130.00;;;9.57;45.82
28683;BME280;15862;43.062;25.626;2022-12-20T09:08:44;102132.50;;;10.97;41.02
28683;BME280;15862;43.062;25.626;2022-12-20T09:11:16;102136.22;;;11.54;39.92
28683;BME280;15862;43.062;25.626;2022-12-20T09:13:44;102130.94;;;11.76;38.53
28683;BME280;15862;43.062;25.626;2022-12-20T09:16:11;102120.41;;;12.55;37.85
28683;BME280;15862;43.062;25.626;2022-12-20T09:18:37;102111.06;;;13.23;36.87
28683;BME280;15862;43.062;25.626;2022-12-20T09:21:04;102109.00;;;14.60;34.59
28683;BME280;15862;43.062;25.626;2022-12-20T09:23:30;102101.22;;;15.05;32.90
28683;BME280;15862;43.062;25.626;2022-12-20T09:26:26;102089.19;;;15.47;32.76
28683;BME280;15862;43.062;25.626;2022-12-20T09:28:51;102085.06;;;15.73;31.94
28683;BME280;15862;43.062;25.626;2022-12-20T09:31:20;102077.16;;;15.31;32.00
28683;BME280;15862;43.062;25.626;2022-12-20T09:33:46;102068.22;;;16.06;31.41
28683;BME280;15862;43.062;25.626;2022-12-20T09:36:13;102071.44;;;16.37;30.73
28683;BME280;15862;43.062;25.626;2022-12-20T09:38:39;102063.09;;;15.77;31.07
28683;BME280;15862;43.062;25.626;2022-12-20T09:41:07;102052.44;;;16.35;30.59
28683;BME280;15862;43.062;25.626;2022-12-20T09:43:40;102055.44;;;16.29;31.08
28683;BME280;15862;43.062;25.626;2022-12-20T09:46:06;102049.06;;;16.47;29.98
28683;BME280;15862;43.062;25.626;2022-12-20T09:48:37;102053.03;;;15.85;30.81
28683;BME280;15862;43.062;25.626;2022-12-20T09:56:27;102027.78;;;15.14;31.79
28683;BME280;15862;43.062;25.626;2022-12-20T09:59:01;101998.00;;;15.61;31.62
28683;BME280;15862;43.062;25.626;2022-12-20T10:01:30;102019.38;;;16.36;30.59
28683;BME280;15862;43.062;25.626;2022-12-20T10:04:00;102013.63;;;15.33;31.43
28683;BME280;15862;43.062;25.626;2022-12-20T10:11:52;101991.19;;;16.01;30.55
28683;BME280;15862;43.062;25.626;2022-12-20T10:20:40;101954.22;;;14.97;31.71
28683;BME280;15862;43.062;25.626;2022-12-20T10:23:24;101937.09;;;14.63;32.16
28683;BME280;15862;43.062;25.626;2022-12-20T10:25:54;101961.66;;;14.44;32.69
28683;BME280;15862;43.062;25.626;2022-12-20T10:28:28;101940.38;;;15.10;31.75
28683;BME280;15862;43.062;25.626;2022-12-20T10:30:58;101931.91;;;15.90;30.93
28683;BME280;15862;43.062;25.626;2022-12-20T10:33:26;101925.06;;;15.33;31.96
28683;BME280;15862;43.062;25.626;2022-12-20T10:35:52;101918.44;;;16.75;30.57
28683;BME280;15862;43.062;25.626;2022-12-20T10:38:17;101918.75;;;16.71;29.81
28683;BME280;15862;43.062;25.626;2022-12-20T10:40:55;101918.34;;;17.26;28.46
28683;BME280;15862;43.062;25.626;2022-12-20T10:43:23;101906.38;;;17.36;28.97
28683;BME280;15862;43.062;25.626;2022-12-20T10:45:59;101900.59;;;17.06;29.65
28683;BME280;15862;43.062;25.626;2022-12-20T10:48:37;101891.66;;;16.34;30.12
28683;BME280;15862;43.062;25.626;2022-12-20T10:53:35;101879.97;;;14.33;30.65
28683;BME280;15862;43.062;25.626;2022-12-20T10:58:51;101887.38;;;13.78;32.88
28683;BME280;15862;43.062;25.626;2022-12-20T11:01:18;101879.28;;;13.54;32.78
28683;BME280;15862;43.062;25.626;2022-12-20T11:03:54;101877.34;;;13.57;30.90
28683;BME280;15862;43.062;25.626;2022-12-20T11:06:23;101869.69;;;14.00;31.16
28683;BME280;15862;43.062;25.626;2022-12-20T11:08:49;101862.75;;;14.01;29.90
28683;BME280;15862;43.062;25.626;2022-12-20T11:11:20;101868.47;;;13.76;30.50
28683;BME280;15862;43.062;25.626;2022-12-20T11:13:47;101862.75;;;13.39;31.12
28683;BME280;15862;43.062;25.626;2022-12-20T11:19:07;101836.75;;;12.42;33.21
28683;BME280;15862;43.062;25.626;2022-12-20T11:21:51;101846.66;;;12.34;34.89
28683;BME280;15862;43.062;25.626;2022-12-20T11:24:25;101834.84;;;12.46;34.30
28683;BME280;15862;43.062;25.626;2022-12-20T11:32:06;101797.91;;;12.58;33.47
28683;BME280;15862;43.062;25.626;2022-12-20T11:37:20;101810.50;;;13.61;32.88
28683;BME280;15862;43.062;25.626;2022-12-20T11:53:35;101754.16;;;14.35;31.93
28683;BME280;15862;43.062;25.626;2022-12-20T11:56:08;101775.25;;;14.45;31.83
28683;BME280;15862;43.062;25.626;2022-12-20T11:58:49;101773.78;;;13.96;31.21
28683;BME280;15862;43.062;25.626;2022-12-20T12:01:18;101768.34;;;12.62;32.70
28683;BME280;15862;43.062;25.626;2022-12-20T12:04:06;101767.88;;;11.52;35.14
28683;BME280;15862;43.062;25.626;2022-12-20T12:06:44;101763.09;;;11.43;36.00
28683;BME280;15862;43.062;25.626;2022-12-20T12:09:26;101744.06;;;11.44;35.87
28683;BME280;15862;43.062;25.626;2022-12-20T12:12:02;101747.03;;;11.72;35.72
28683;BME280;15862;43.062;25.626;2022-12-20T12:14:49;101759.53;;;11.64;37.80
28683;BME280;15862;43.062;25.626;2022-12-20T12:17:26;101753.31;;;11.50;40.29
28683;BME280;15862;43.062;25.626;2022-12-20T12:19:56;101751.47;;;11.17;40.36
28683;BME280;15862;43.062;25.626;2022-12-20T12:22:33;101753.13;;;10.81;41.20
28683;BME280;15862;43.062;25.626;2022-12-20T12:25:03;101743.00;;;10.76;41.03
28683;BME280;15862;43.062;25.626;2022-12-20T12:27:32;101743.19;;;10.54;42.72
28683;BME280;15862;43.062;25.626;2022-12-20T12:29:59;101750.69;;;10.40;43.09
28683;BME280;15862;43.062;25.626;2022-12-20T12:32:35;101759.47;;;9.75;43.63
28683;BME280;15862;43.062;25.626;2022-12-20T12:45:51;101746.75;;;9.70;41.33
28683;BME280;15862;43.062;25.626;2022-12-20T12:48:38;101735.34;;;9.76;41.29
28683;BME280;15862;43.062;25.626;2022-12-20T12:51:05;101733.44;;;9.81;40.90
28683;BME280;15862;43.062;25.626;2022-12-20T12:53:33;101731.34;;;9.69;41.20
28683;BME280;15862;43.062;25.626;2022-12-20T13:20:27;101748.19;;;4.45;64.14
28683;BME280;15862;43.062;25.626;2022-12-20T13:25:41;101742.25;;;3.97;71.03
28683;BME280;15862;43.062;25.626;2022-12-20T13:36:28;101739.97;;;3.30;81.30
28683;BME280;15862;43.062;25.626;2022-12-20T13:38:52;101735.84;;;3.21;82.76
28683;BME280;15862;43.062;25.626;2022-12-20T13:41:39;101719.16;;;3.00;85.19
28683;BME280;15862;43.062;25.626;2022-12-20T13:49:37;101731.16;;;2.92;87.91
28683;BME280;15862;43.062;25.626;2022-12-20T13:54:39;101737.41;;;2.70;89.35
28683;BME280;15862;43.062;25.626;2022-12-20T13:57:06;101738.38;;;2.58;90.63
28683;BME280;15862;43.062;25.626;2022-12-20T13:59:32;101732.56;;;2.47;91.41
28683;BME280;15862;43.062;25.626;2022-12-20T14:02:03;101734.38;;;2.39;92.42
28683;BME280;15862;43.062;25.626;2022-12-20T14:04:43;101743.78;;;2.33;93.25
28683;BME280;15862;43.062;25.626;2022-12-20T14:07:14;101747.38;;;2.13;94.68
28683;BME280;15862;43.062;25.626;2022-12-20T14:09:44;101739.78;;;2.10;96.53
28683;BME280;15862;43.062;25.626;2022-12-20T14:12:14;101732.28;;;1.96;98.02
28683;BME280;15862;43.062;25.626;2022-12-20T14:14:44;101727.34;;;1.80;98.91
28683;BME280;15862;43.062;25.626;2022-12-20T14:25:14;101748.16;;;1.17;100.00
28683;BME280;15862;43.062;25.626;2022-12-20T14:27:41;101731.28;;;1.06;100.00
28683;BME280;15862;43.062;25.626;2022-12-20T14:30:34;101707.69;;;0.83;100.00
28683;BME280;15862;43.062;25.626;2022-12-20T14:33:35;101728.03;;;0.80;100.00
28683;BME280;15862;43.062;25.626;2022-12-20T14:36:25;101717.13;;;0.62;100.00
28683;BME280;15862;43.062;25.626;2022-12-20T14:38:51;101704.56;;;0.29;100.00
28683;BME280;15862;43.062;25.626;2022-12-20T14:41:36;101725.75;;;0.16;100.00
28683;BME280;15862;43.062;25.626;2022-12-20T14:46:31;101717.34;;;-0.10;100.00
28683;BME280;15862;43.062;25.626;2022-12-20T14:49:25;101725.81;;;-0.24;100.00
28683;BME280;15862;43.062;25.626;2022-12-20T14:52:02;101721.59;;;-0.31;100.00
28683;BME280;15862;43.062;25.626;2022-12-20T14:54:30;101717.38;;;-0.49;100.00
28683;BME280;15862;43.062;25.626;2022-12-20T14:56:56;101711.47;;;-0.60;100.00
28683;BME280;15862;43.062;25.626;2022-12-20T14:59:27;101721.59;;;-0.63;100.00
28683;BME280;15862;43.062;25.626;2022-12-20T15:01:53;101725.81;;;-0.71;100.00